Time;durP1;ratioP1;P1;durP2;ratioP2;P2;SDS_P1;SDS_P2;PMS_P1;PMS_P2;Temp;Humidity;BMP_temperature;BMP_pressure;BME280_temperature;BME280_humidity;BME280_pressure;Samples;Min_cycle;Max_cycle;Signal;HPM_P1;HPM_P2
2022/05/05 00:00:49;;;;;;;5.65;2.33;;;;;;;;;;2079063;28;20029;-68
2022/05/05 00:02:08;;;;;;;3.83;1.75;;;;;;;;;;2084228;28;20018;-68
2022/05/05 00:03:27;;;;;;;5.25;1.88;;;;;;;;;;2090044;28;20025;-68
2022/05/05 00:04:46;;;;;;;2.67;1.50;;;;;;;;;;2087306;28;20029;-69
2022/05/05 00:06:05;;;;;;;2.83;1.40;;;;;;;;;;2088258;28;20029;-68
2022/05/05 00:07:24;;;;;;;2.85;1.42;;;;;;;;;;2088568;28;20037;-68
2022/05/05 00:08:42;;;;;;;3.22;1.40;;;;;;;;;;2080217;28;20108;-68
2022/05/05 00:14:23;;;;;;;1.80;1.70;;;;;;;;;;2076501;28;20025;-68
2022/05/05 00:14:56;;;;;;;4.88;1.65;;;;;;;;;;2089776;28;20017;-69
2022/05/05 00:16:15;;;;;;;4.90;1.65;;;;;;;;;;2088500;28;20029;-68
2022/05/05 00:17:34;;;;;;;3.03;1.63;;;;;;;;;;2088948;28;20045;-68
2022/05/05 00:18:53;;;;;;;2.75;1.70;;;;;;;;;;2080791;28;20017;-68
2022/05/05 00:20:12;;;;;;;7.15;1.77;;;;;;;;;;2077611;28;20033;-69
2022/05/05 00:21:31;;;;;;;3.83;1.52;;;;;;;;;;2079873;28;20085;-68
2022/05/05 00:22:50;;;;;;;3.28;1.75;;;;;;;;;;2085885;28;20025;-68
2022/05/05 00:24:09;;;;;;;3.35;1.35;;;;;;;;;;2079962;28;20029;-68
2022/05/05 00:25:28;;;;;;;2.85;1.70;;;;;;;;;;2085977;28;20116;-68
2022/05/05 00:26:47;;;;;;;3.47;1.50;;;;;;;;;;2089368;28;20438;-68
2022/05/05 00:28:07;;;;;;;3.15;1.23;;;;;;;;;;2089668;28;20029;-68
2022/05/05 00:29:26;;;;;;;2.78;1.48;;;;;;;;;;2089080;28;20032;-68
2022/05/05 00:30:45;;;;;;;6.05;1.88;;;;;;;;;;2088608;28;20033;-68
2022/05/05 00:32:04;;;;;;;3.67;1.73;;;;;;;;;;2087866;28;20108;-68
2022/05/05 00:33:23;;;;;;;2.15;1.70;;;;;;;;;;2087780;28;20021;-68
2022/05/05 00:34:41;;;;;;;3.35;1.83;;;;;;;;;;2089187;28;20033;-70
2022/05/05 00:36:00;;;;;;;4.75;1.80;;;;;;;;;;2089420;28;20386;-68
2022/05/05 00:37:19;;;;;;;2.63;1.52;;;;;;;;;;2089157;28;20032;-68
2022/05/05 00:38:38;;;;;;;4.20;2.13;;;;;;;;;;2079696;28;20120;-68
2022/05/05 00:39:57;;;;;;;1.85;1.50;;;;;;;;;;2086137;28;20025;-66
2022/05/05 00:41:16;;;;;;;5.47;1.70;;;;;;;;;;2088100;28;20498;-68
2022/05/05 00:42:35;;;;;;;3.33;1.58;;;;;;;;;;2088670;28;20033;-69
2022/05/05 00:43:54;;;;;;;3.95;1.50;;;;;;;;;;2089517;28;20029;-69
2022/05/05 00:45:13;;;;;;;4.32;1.75;;;;;;;;;;2087028;28;20029;-69
2022/05/05 00:46:33;;;;;;;3.42;1.52;;;;;;;;;;2083365;28;20033;-68
2022/05/05 00:47:52;;;;;;;5.78;2.13;;;;;;;;;;2080385;28;20412;-69
2022/05/05 00:49:11;;;;;;;4.75;2.67;;;;;;;;;;2085068;28;20117;-69
2022/05/05 00:50:31;;;;;;;3.90;2.20;;;;;;;;;;2087866;28;20025;-69
2022/05/05 00:51:50;;;;;;;3.83;2.30;;;;;;;;;;2087962;28;20069;-67
2022/05/05 00:53:09;;;;;;;5.45;2.20;;;;;;;;;;2089321;28;20036;-68
2022/05/05 00:54:28;;;;;;;4.20;2.05;;;;;;;;;;2088451;28;20483;-68
2022/05/05 00:55:49;;;;;;;3.05;2.03;;;;;;;;;;2080204;28;20034;-69
2022/05/05 00:57:08;;;;;;;4.05;1.70;;;;;;;;;;2081228;28;20512;-69
2022/05/05 00:58:27;;;;;;;4.63;2.20;;;;;;;;;;2087366;28;20103;-69
2022/05/05 00:59:46;;;;;;;4.03;2.10;;;;;;;;;;2079692;28;20503;-69
2022/05/05 01:01:06;;;;;;;5.35;2.10;;;;;;;;;;2076406;28;20033;-68
2022/05/05 01:02:25;;;;;;;1.60;1.50;;;;;;;;;;2084117;28;20033;-69
2022/05/05 01:03:45;;;;;;;4.90;2.20;;;;;;;;;;2081890;28;20041;-69
2022/05/05 01:05:04;;;;;;;4.80;2.00;;;;;;;;;;2077301;28;20030;-69
2022/05/05 01:06:23;;;;;;;2.65;2.22;;;;;;;;;;2085352;28;20041;-69
2022/05/05 01:07:42;;;;;;;4.45;2.10;;;;;;;;;;2088966;28;20479;-70
2022/05/05 01:09:02;;;;;;;2.60;2.00;;;;;;;;;;2089789;28;20479;-70
2022/05/05 01:10:21;;;;;;;6.18;2.13;;;;;;;;;;2089019;28;20053;-68
2022/05/05 01:11:40;;;;;;;2.42;1.67;;;;;;;;;;2087268;28;20041;-68
2022/05/05 01:13:01;;;;;;;4.55;2.30;;;;;;;;;;2089569;28;20025;-68
2022/05/05 01:14:20;;;;;;;4.75;2.30;;;;;;;;;;2090395;28;20454;-68
2022/05/05 01:15:39;;;;;;;4.10;1.98;;;;;;;;;;2090934;28;20021;-68
2022/05/05 01:16:58;;;;;;;4.13;2.15;;;;;;;;;;2090034;28;20033;-68
2022/05/05 01:18:17;;;;;;;4.60;2.00;;;;;;;;;;2090571;28;20234;-68
2022/05/05 01:19:36;;;;;;;3.65;1.77;;;;;;;;;;2091070;28;20107;-68
2022/05/05 01:20:55;;;;;;;2.90;1.45;;;;;;;;;;2082266;28;20499;-68
2022/05/05 01:22:15;;;;;;;3.30;1.60;;;;;;;;;;2086088;28;20029;-68
2022/05/05 01:23:33;;;;;;;2.30;2.03;;;;;;;;;;2091465;28;20506;-69
2022/05/05 01:28:11;;;;;;;4.93;1.65;;;;;;;;;;2090261;28;20029;-68
2022/05/05 01:29:30;;;;;;;4.13;1.73;;;;;;;;;;2089255;28;20024;-68
2022/05/05 01:30:49;;;;;;;7.15;2.40;;;;;;;;;;2089870;28;20479;-68
2022/05/05 01:32:08;;;;;;;2.25;1.63;;;;;;;;;;2088256;28;20103;-68
2022/05/05 01:33:28;;;;;;;4.72;2.05;;;;;;;;;;2090651;28;20503;-68
2022/05/05 01:34:47;;;;;;;4.10;1.60;;;;;;;;;;2091403;28;20061;-68
2022/05/05 01:36:06;;;;;;;2.55;2.33;;;;;;;;;;2090326;28;20029;-67
2022/05/05 01:37:26;;;;;;;4.65;2.58;;;;;;;;;;2089807;28;20037;-70
2022/05/05 01:38:45;;;;;;;3.58;2.30;;;;;;;;;;2090948;28;20045;-68
2022/05/05 01:40:04;;;;;;;5.40;2.00;;;;;;;;;;2087931;28;20056;-71
2022/05/05 01:41:22;;;;;;;3.03;2.00;;;;;;;;;;2089235;28;20029;-68
2022/05/05 01:42:41;;;;;;;3.08;2.10;;;;;;;;;;2088373;28;20033;-68
2022/05/05 01:44:00;;;;;;;4.20;1.88;;;;;;;;;;2090323;28;20687;-68
2022/05/05 01:45:19;;;;;;;8.98;2.22;;;;;;;;;;2090252;28;20029;-68
2022/05/05 01:46:39;;;;;;;4.63;3.13;;;;;;;;;;2088938;28;20036;-68
2022/05/05 01:47:57;;;;;;;4.93;3.33;;;;;;;;;;2089399;28;20053;-67
2022/05/05 01:49:16;;;;;;;3.28;2.40;;;;;;;;;;2089012;28;20068;-68
2022/05/05 01:50:36;;;;;;;2.92;2.35;;;;;;;;;;2090652;28;20534;-68
2022/05/05 01:51:55;;;;;;;4.45;2.20;;;;;;;;;;2080444;28;20033;-68
2022/05/05 01:53:14;;;;;;;3.58;2.20;;;;;;;;;;2085905;28;20037;-67
2022/05/05 01:54:33;;;;;;;3.88;1.73;;;;;;;;;;2086999;28;20033;-67
2022/05/05 01:55:52;;;;;;;4.47;2.10;;;;;;;;;;2090360;28;20025;-68
2022/05/05 01:57:11;;;;;;;3.95;2.47;;;;;;;;;;2081663;28;20025;-67
2022/05/05 01:58:30;;;;;;;5.72;2.55;;;;;;;;;;2085904;28;20029;-67
2022/05/05 01:59:49;;;;;;;4.32;3.08;;;;;;;;;;2080315;28;20408;-67
2022/05/05 02:01:08;;;;;;;3.58;2.53;;;;;;;;;;2078027;28;20037;-67
2022/05/05 02:02:27;;;;;;;4.63;2.00;;;;;;;;;;2080895;28;20029;-67
2022/05/05 02:03:46;;;;;;;1.85;1.65;;;;;;;;;;2085943;28;20084;-68
2022/05/05 02:05:06;;;;;;;5.03;2.20;;;;;;;;;;2088200;28;20451;-68
2022/05/05 02:06:25;;;;;;;2.60;2.20;;;;;;;;;;2089974;28;20029;-68
2022/05/05 02:07:44;;;;;;;2.58;1.58;;;;;;;;;;2090462;28;20025;-68
2022/05/05 02:09:03;;;;;;;3.20;2.22;;;;;;;;;;2088855;28;20072;-68
2022/05/05 02:10:22;;;;;;;6.10;2.30;;;;;;;;;;2090261;28;20029;-68
2022/05/05 02:11:41;;;;;;;8.75;2.72;;;;;;;;;;2079782;28;20443;-68
2022/05/05 02:13:00;;;;;;;3.90;2.00;;;;;;;;;;2086026;28;20025;-66
2022/05/05 02:14:23;;;;;;;3.72;2.47;;;;;;;;;;2088833;28;20033;-67
2022/05/05 02:15:42;;;;;;;;;;;;;;;;;;2091013;28;20025;-66
2022/05/05 02:17:01;;;;;;;4.03;2.75;;;;;;;;;;2089435;28;19909;-67
2022/05/05 02:18:20;;;;;;;2.85;2.03;;;;;;;;;;2080901;28;20033;-67
2022/05/05 02:19:39;;;;;;;3.42;2.33;;;;;;;;;;2086237;28;20041;-68
2022/05/05 02:20:58;;;;;;;6.80;3.40;;;;;;;;;;2079795;28;20108;-68
2022/05/05 02:22:17;;;;;;;4.10;2.75;;;;;;;;;;2086645;28;20391;-68
2022/05/05 02:23:36;;;;;;;5.05;2.85;;;;;;;;;;2090168;28;20021;-69
2022/05/05 02:24:55;;;;;;;5.60;2.50;;;;;;;;;;2089327;28;20037;-68
2022/05/05 02:26:14;;;;;;;4.85;2.92;;;;;;;;;;2089872;28;20029;-67
2022/05/05 02:27:49;;;;;;;6.40;3.05;;;;;;;;;;2080822;28;20662;-68
2022/05/05 02:29:08;;;;;;;2.67;2.10;;;;;;;;;;2088856;28;20064;-68
2022/05/05 02:30:28;;;;;;;3.60;2.55;;;;;;;;;;2089902;28;20025;-68
2022/05/05 02:31:47;;;;;;;2.35;2.00;;;;;;;;;;2088872;28;20080;-68
2022/05/05 02:33:06;;;;;;;8.10;2.95;;;;;;;;;;2080391;28;20025;-68
2022/05/05 02:34:25;;;;;;;3.47;2.58;;;;;;;;;;2086482;28;20402;-68
2022/05/05 02:35:44;;;;;;;5.10;3.80;;;;;;;;;;2090947;28;20108;-68
2022/05/05 02:38:44;;;;;;;6.03;3.03;;;;;;;;;;2080915;28;20037;-68
2022/05/05 02:40:03;;;;;;;4.50;2.50;;;;;;;;;;2082214;28;20030;-68
2022/05/05 02:41:21;;;;;;;5.57;2.92;;;;;;;;;;2081398;28;20117;-68
2022/05/05 02:42:41;;;;;;;4.25;2.30;;;;;;;;;;2080567;28;20030;-69
2022/05/05 02:44:00;;;;;;;3.97;2.65;;;;;;;;;;2082086;28;20030;-69
2022/05/05 02:45:19;;;;;;;9.90;3.10;;;;;;;;;;2082037;28;20033;-68
2022/05/05 02:46:38;;;;;;;2.95;2.33;;;;;;;;;;2081607;28;20060;-68
2022/05/05 02:47:57;;;;;;;4.65;2.13;;;;;;;;;;2080614;28;20400;-68
2022/05/05 02:49:16;;;;;;;2.85;2.08;;;;;;;;;;2081889;28;20113;-68
2022/05/05 02:50:35;;;;;;;4.38;2.45;;;;;;;;;;2079127;28;20033;-69
2022/05/05 02:51:54;;;;;;;4.88;2.60;;;;;;;;;;2078394;28;20038;-68
2022/05/05 02:54:51;;;;;;;4.53;2.10;;;;;;;;;;2080848;28;20041;-68
2022/05/05 02:56:11;;;;;;;4.40;3.25;;;;;;;;;;2080885;28;20038;-68
2022/05/05 02:57:30;;;;;;;4.88;2.88;;;;;;;;;;2081689;28;20224;-67
2022/05/05 02:58:49;;;;;;;6.22;3.88;;;;;;;;;;2081192;28;20112;-68
2022/05/05 03:00:12;;;;;;;5.13;2.92;;;;;;;;;;2082121;28;20033;-69
2022/05/05 03:01:32;;;;;;;5.97;3.42;;;;;;;;;;2079302;28;20029;-69
2022/05/05 03:02:51;;;;;;;3.88;2.30;;;;;;;;;;2081449;28;20033;-68
2022/05/05 03:04:10;;;;;;;3.33;2.53;;;;;;;;;;2081711;28;20112;-68
2022/05/05 03:05:29;;;;;;;4.18;2.38;;;;;;;;;;2080770;28;20037;-68
2022/05/05 03:06:48;;;;;;;3.17;2.10;;;;;;;;;;2081092;28;20029;-68
2022/05/05 03:08:07;;;;;;;4.47;2.20;;;;;;;;;;2081706;28;20029;-68
2022/05/05 03:09:26;;;;;;;3.80;2.15;;;;;;;;;;2081501;28;20030;-68
2022/05/05 03:10:45;;;;;;;2.92;2.33;;;;;;;;;;2081483;28;20395;-68
2022/05/05 03:12:04;;;;;;;5.60;2.80;;;;;;;;;;2081267;28;20069;-68
2022/05/05 03:13:23;;;;;;;3.78;2.30;;;;;;;;;;2072301;28;20018;-68
2022/05/05 03:14:43;;;;;;;5.18;2.35;;;;;;;;;;2077263;28;20026;-68
2022/05/05 03:16:01;;;;;;;3.55;2.20;;;;;;;;;;2081258;28;20053;-65
2022/05/05 03:17:21;;;;;;;6.93;2.55;;;;;;;;;;2081960;28;20041;-68
2022/05/05 03:18:40;;;;;;;5.15;2.97;;;;;;;;;;2081250;28;20026;-68
2022/05/05 03:19:59;;;;;;;4.72;2.97;;;;;;;;;;2079943;28;20112;-68
2022/05/05 03:21:18;;;;;;;5.50;2.63;;;;;;;;;;2080966;28;20061;-68
2022/05/05 03:22:37;;;;;;;4.47;2.25;;;;;;;;;;2080971;28;20025;-68
2022/05/05 03:23:56;;;;;;;3.95;2.35;;;;;;;;;;2081520;28;20029;-68
2022/05/05 03:25:16;;;;;;;6.47;2.70;;;;;;;;;;2079985;28;20041;-67
2022/05/05 03:26:34;;;;;;;5.05;2.67;;;;;;;;;;2073153;28;20412;-69
2022/05/05 03:27:53;;;;;;;4.25;2.50;;;;;;;;;;2078055;28;20396;-68
2022/05/05 03:29:12;;;;;;;4.15;2.40;;;;;;;;;;2081597;28;20041;-68
2022/05/05 03:30:31;;;;;;;2.45;2.25;;;;;;;;;;2072141;28;20074;-68
2022/05/05 03:31:50;;;;;;;2.50;2.25;;;;;;;;;;2075846;28;20033;-68
2022/05/05 03:33:09;;;;;;;2.75;1.88;;;;;;;;;;2071554;28;20038;-68
2022/05/05 03:34:27;;;;;;;3.17;2.17;;;;;;;;;;2076931;28;20026;-68
2022/05/05 03:35:47;;;;;;;3.08;2.35;;;;;;;;;;2080097;28;20025;-69
2022/05/05 03:37:06;;;;;;;3.97;2.08;;;;;;;;;;2081808;28;20061;-68
2022/05/05 03:38:25;;;;;;;4.88;2.17;;;;;;;;;;2088062;28;20045;-68
2022/05/05 03:39:44;;;;;;;3.95;2.53;;;;;;;;;;2089339;28;20426;-68
2022/05/05 03:41:05;;;;;;;2.13;1.85;;;;;;;;;;2090274;28;20021;-68
2022/05/05 03:42:24;;;;;;;4.30;2.63;;;;;;;;;;2089406;28;20025;-67
2022/05/05 03:43:43;;;;;;;3.53;2.35;;;;;;;;;;2085655;28;20483;-68
2022/05/05 03:45:02;;;;;;;2.60;2.40;;;;;;;;;;2087579;28;20040;-68
2022/05/05 03:46:21;;;;;;;3.22;1.98;;;;;;;;;;2090238;28;20021;-68
2022/05/05 03:47:40;;;;;;;3.38;2.33;;;;;;;;;;2089998;28;20479;-67
2022/05/05 03:48:59;;;;;;;5.13;2.15;;;;;;;;;;2090184;28;20029;-67
2022/05/05 03:50:18;;;;;;;5.65;2.45;;;;;;;;;;2080027;28;20512;-68
2022/05/05 03:51:37;;;;;;;5.25;2.38;;;;;;;;;;2083239;28;20495;-67
2022/05/05 03:52:56;;;;;;;4.63;2.35;;;;;;;;;;2088329;28;20057;-67
2022/05/05 03:54:15;;;;;;;5.45;2.13;;;;;;;;;;2080356;28;20159;-67
2022/05/05 03:55:33;;;;;;;3.78;2.50;;;;;;;;;;2075170;28;20013;-68
2022/05/05 03:56:52;;;;;;;4.47;2.20;;;;;;;;;;2083464;28;20021;-70
2022/05/05 03:58:11;;;;;;;2.53;2.30;;;;;;;;;;2090151;28;20040;-67
2022/05/05 03:59:30;;;;;;;2.90;1.92;;;;;;;;;;2079051;28;20097;-67
2022/05/05 04:00:49;;;;;;;6.82;2.60;;;;;;;;;;2086566;28;20021;-68
2022/05/05 04:02:08;;;;;;;2.75;2.30;;;;;;;;;;2089320;28;20033;-67
2022/05/05 04:03:33;;;;;;;4.63;2.33;;;;;;;;;;2079370;28;20116;-68
2022/05/05 04:04:51;;;;;;;6.85;2.50;;;;;;;;;;2085863;28;20029;-68
2022/05/05 04:06:11;;;;;;;4.05;2.13;;;;;;;;;;2089641;28;20029;-69
2022/05/05 04:07:30;;;;;;;2.88;2.15;;;;;;;;;;2089779;28;20042;-68
2022/05/05 04:08:49;;;;;;;3.40;2.50;;;;;;;;;;2090293;28;20033;-68
2022/05/05 04:10:08;;;;;;;4.78;2.20;;;;;;;;;;2088852;28;20064;-68
2022/05/05 04:11:27;;;;;;;4.50;2.58;;;;;;;;;;2080069;28;20053;-68
2022/05/05 04:12:46;;;;;;;4.13;2.33;;;;;;;;;;2084859;28;20029;-68
2022/05/05 04:14:05;;;;;;;3.30;2.25;;;;;;;;;;2087999;28;20457;-66
2022/05/05 04:15:24;;;;;;;4.68;2.67;;;;;;;;;;2089191;28;20061;-67
2022/05/05 04:16:43;;;;;;;3.30;2.45;;;;;;;;;;2088803;28;20032;-68
2022/05/05 04:18:02;;;;;;;5.25;2.47;;;;;;;;;;2079934;28;20104;-69
2022/05/05 04:19:22;;;;;;;4.70;2.50;;;;;;;;;;2076729;28;20060;-67
2022/05/05 04:20:44;;;;;;;5.07;2.78;;;;;;;;;;2085032;28;20603;-69
2022/05/05 04:22:03;;;;;;;5.00;2.67;;;;;;;;;;2079435;28;20041;-67
2022/05/05 04:23:21;;;;;;;3.20;2.55;;;;;;;;;;2080239;28;20415;-67
2022/05/05 04:24:40;;;;;;;5.47;2.50;;;;;;;;;;2079296;28;20033;-67
2022/05/05 04:25:59;;;;;;;4.78;2.85;;;;;;;;;;2077158;28;20037;-69
2022/05/05 04:27:18;;;;;;;3.97;2.47;;;;;;;;;;2086110;28;20065;-66
2022/05/05 04:28:37;;;;;;;3.40;2.92;;;;;;;;;;2089692;28;20446;-67
2022/05/05 04:29:55;;;;;;;4.25;2.40;;;;;;;;;;2088236;28;20107;-67
2022/05/05 04:31:15;;;;;;;4.45;2.35;;;;;;;;;;2088651;28;20033;-67
2022/05/05 04:32:34;;;;;;;3.53;2.63;;;;;;;;;;2079639;28;20025;-68
2022/05/05 04:33:53;;;;;;;7.55;2.53;;;;;;;;;;2075498;28;20026;-67
2022/05/05 04:35:13;;;;;;;3.15;2.42;;;;;;;;;;2085935;28;20025;-67
2022/05/05 04:36:35;;;;;;;4.10;3.03;;;;;;;;;;2089634;28;20021;-68
2022/05/05 04:37:55;;;;;;;3.55;2.63;;;;;;;;;;2080593;28;20041;-69
2022/05/05 04:39:13;;;;;;;6.10;2.35;;;;;;;;;;2083943;28;20021;-69
2022/05/05 04:40:32;;;;;;;2.55;2.25;;;;;;;;;;2086057;28;20037;-69
2022/05/05 04:41:51;;;;;;;5.10;3.00;;;;;;;;;;2088847;28;20033;-70
2022/05/05 04:43:13;;;;;;;4.13;2.70;;;;;;;;;;2089674;28;20491;-68
2022/05/05 04:44:32;;;;;;;5.63;2.67;;;;;;;;;;2089295;28;20036;-68
2022/05/05 04:45:51;;;;;;;4.88;2.33;;;;;;;;;;2088993;28;20041;-68
2022/05/05 04:47:10;;;;;;;4.28;2.90;;;;;;;;;;2088903;28;20033;-68
2022/05/05 04:48:29;;;;;;;3.53;2.42;;;;;;;;;;2089704;28;20033;-68
2022/05/05 04:49:48;;;;;;;3.65;2.50;;;;;;;;;;2080068;28;20478;-68
2022/05/05 04:51:07;;;;;;;3.15;2.70;;;;;;;;;;2085261;28;20041;-68
2022/05/05 04:52:26;;;;;;;5.38;2.88;;;;;;;;;;2086887;28;20021;-69
2022/05/05 04:53:44;;;;;;;5.60;2.80;;;;;;;;;;2088750;28;20032;-67
2022/05/05 04:55:04;;;;;;;4.25;2.60;;;;;;;;;;2087985;28;20060;-66
2022/05/05 04:56:23;;;;;;;5.10;2.85;;;;;;;;;;2079354;28;20042;-66
2022/05/05 04:57:42;;;;;;;3.13;2.65;;;;;;;;;;2084659;28;20033;-69
2022/05/05 04:59:00;;;;;;;7.95;3.10;;;;;;;;;;2088320;28;20112;-67
2022/05/05 05:00:19;;;;;;;8.02;2.90;;;;;;;;;;2077965;28;20527;-67
2022/05/05 05:01:39;;;;;;;4.78;2.70;;;;;;;;;;2085405;28;20033;-67
2022/05/05 05:02:59;;;;;;;5.82;2.72;;;;;;;;;;2088999;28;20033;-68
2022/05/05 05:04:18;;;;;;;3.92;2.60;;;;;;;;;;2088233;28;20029;-67
2022/05/05 05:05:37;;;;;;;4.70;2.65;;;;;;;;;;2088443;28;20037;-68
2022/05/05 05:06:56;;;;;;;4.47;2.78;;;;;;;;;;2087668;28;20025;-69
2022/05/05 05:08:15;;;;;;;4.80;2.67;;;;;;;;;;2078774;28;21385;-68
2022/05/05 05:09:37;;;;;;;5.18;2.67;;;;;;;;;;2085997;28;20499;-68
2022/05/05 05:10:57;;;;;;;3.33;2.70;;;;;;;;;;2087696;28;20041;-68
2022/05/05 05:12:16;;;;;;;6.18;3.25;;;;;;;;;;2089461;28;20120;-69
2022/05/05 05:13:36;;;;;;;3.88;2.33;;;;;;;;;;2089365;28;20029;-68
2022/05/05 05:14:55;;;;;;;5.55;2.67;;;;;;;;;;2087383;28;20022;-68
2022/05/05 05:16:14;;;;;;;8.70;2.40;;;;;;;;;;2088185;28;20072;-69
2022/05/05 05:17:33;;;;;;;4.85;2.83;;;;;;;;;;2078668;28;20021;-66
2022/05/05 05:18:53;;;;;;;3.65;2.47;;;;;;;;;;2084222;28;20403;-67
2022/05/05 05:20:13;;;;;;;4.55;3.08;;;;;;;;;;2088591;28;20029;-68
2022/05/05 05:21:32;;;;;;;6.53;3.05;;;;;;;;;;2088977;28;20037;-68
2022/05/05 05:22:51;;;;;;;3.95;2.55;;;;;;;;;;2080415;28;20061;-66
2022/05/05 05:24:09;;;;;;;5.80;2.95;;;;;;;;;;2085059;28;20024;-68
2022/05/05 05:25:28;;;;;;;4.80;2.53;;;;;;;;;;2086379;28;20020;-67
2022/05/05 05:26:47;;;;;;;3.38;2.40;;;;;;;;;;2088786;28;20448;-68
2022/05/05 05:28:06;;;;;;;4.13;2.30;;;;;;;;;;2087899;28;20120;-66
2022/05/05 05:29:25;;;;;;;8.00;2.70;;;;;;;;;;2088357;28;20028;-68
2022/05/05 05:30:44;;;;;;;4.00;2.30;;;;;;;;;;2088233;28;20020;-69
2022/05/05 05:32:04;;;;;;;3.60;2.90;;;;;;;;;;2088529;28;20116;-67
2022/05/05 05:33:22;;;;;;;7.47;2.70;;;;;;;;;;2080685;28;20021;-69
2022/05/05 05:34:41;;;;;;;3.72;3.00;;;;;;;;;;2083212;28;20029;-68
2022/05/05 05:36:00;;;;;;;3.92;2.60;;;;;;;;;;2086959;28;20033;-68
2022/05/05 05:37:19;;;;;;;3.17;2.58;;;;;;;;;;2087783;28;20017;-67
2022/05/05 05:38:39;;;;;;;8.43;3.08;;;;;;;;;;2088082;28;20041;-69
2022/05/05 05:39:57;;;;;;;6.07;2.75;;;;;;;;;;2088019;28;20036;-69
2022/05/05 05:41:16;;;;;;;4.97;2.72;;;;;;;;;;2085488;28;20423;-69
2022/05/05 05:42:35;;;;;;;5.10;2.72;;;;;;;;;;2088611;28;20037;-67
2022/05/05 05:43:54;;;;;;;2.95;2.00;;;;;;;;;;2087492;28;20029;-67
2022/05/05 05:45:13;;;;;;;3.67;3.38;;;;;;;;;;2089082;28;20029;-67
2022/05/05 05:46:32;;;;;;;5.60;3.10;;;;;;;;;;2087354;28;20108;-68
2022/05/05 05:47:51;;;;;;;3.92;3.03;;;;;;;;;;2076994;28;20041;-67
2022/05/05 05:49:10;;;;;;;5.45;3.22;;;;;;;;;;2084381;28;20033;-67
2022/05/05 05:50:30;;;;;;;5.43;3.08;;;;;;;;;;2088366;28;20391;-66
2022/05/05 05:51:49;;;;;;;5.10;3.05;;;;;;;;;;2079083;28;20026;-68
2022/05/05 05:53:11;;;;;;;3.58;2.60;;;;;;;;;;2085718;28;20029;-68
2022/05/05 05:54:29;;;;;;;4.57;2.72;;;;;;;;;;2088130;28;20033;-67
2022/05/05 05:55:48;;;;;;;4.68;2.63;;;;;;;;;;2087074;28;20029;-68
2022/05/05 05:57:07;;;;;;;5.43;2.80;;;;;;;;;;2087061;28;20029;-68
2022/05/05 05:58:26;;;;;;;5.82;2.92;;;;;;;;;;2088405;28;20029;-68
2022/05/05 05:59:45;;;;;;;4.70;3.08;;;;;;;;;;2089797;28;20047;-68
2022/05/05 06:01:06;;;;;;;4.60;2.50;;;;;;;;;;2080894;28;20041;-67
2022/05/05 06:04:04;;;;;;;6.18;3.05;;;;;;;;;;2090823;28;20398;-69
2022/05/05 06:05:23;;;;;;;5.68;2.40;;;;;;;;;;2091046;28;20029;-68
2022/05/05 06:06:42;;;;;;;3.30;2.63;;;;;;;;;;2089868;28;20063;-68
2022/05/05 06:08:02;;;;;;;3.55;2.50;;;;;;;;;;2090031;28;20029;-69
2022/05/05 06:09:21;;;;;;;8.95;2.83;;;;;;;;;;2091035;28;20526;-67
2022/05/05 06:10:39;;;;;;;5.40;2.65;;;;;;;;;;2081986;28;20036;-68
2022/05/05 06:11:58;;;;;;;5.07;2.45;;;;;;;;;;2086168;28;20041;-67
2022/05/05 06:13:17;;;;;;;6.28;2.95;;;;;;;;;;2088754;28;20037;-67
2022/05/05 06:14:36;;;;;;;4.80;2.42;;;;;;;;;;2081558;28;20491;-66
2022/05/05 06:15:55;;;;;;;2.97;2.38;;;;;;;;;;2078631;28;20025;-66
2022/05/05 06:17:15;;;;;;;7.90;2.85;;;;;;;;;;2086995;28;20025;-67
2022/05/05 06:18:36;;;;;;;4.75;2.88;;;;;;;;;;2090582;28;20020;-67
2022/05/05 06:19:55;;;;;;;3.58;2.53;;;;;;;;;;2090884;28;20037;-67
2022/05/05 06:21:14;;;;;;;5.30;2.60;;;;;;;;;;2088321;28;20029;-67
2022/05/05 06:22:34;;;;;;;4.28;2.40;;;;;;;;;;2081543;28;20068;-67
2022/05/05 06:23:53;;;;;;;3.92;2.50;;;;;;;;;;2077809;28;20045;-67
2022/05/05 06:25:15;;;;;;;5.63;2.90;;;;;;;;;;2086940;28;20089;-68
2022/05/05 06:26:35;;;;;;;3.53;2.50;;;;;;;;;;2089473;28;20017;-66
2022/05/05 06:27:56;;;;;;;3.08;2.60;;;;;;;;;;2080383;28;20025;-66
2022/05/05 06:29:15;;;;;;;4.78;2.38;;;;;;;;;;2087098;28;20029;-67
2022/05/05 06:30:34;;;;;;;10.02;2.72;;;;;;;;;;2088567;28;20056;-67
2022/05/05 06:31:53;;;;;;;3.97;2.85;;;;;;;;;;2079260;28;20034;-67
2022/05/05 06:33:12;;;;;;;11.63;2.92;;;;;;;;;;2086103;28;20025;-69
2022/05/05 06:34:30;;;;;;;4.85;2.55;;;;;;;;;;2090101;28;20108;-68
2022/05/05 06:35:49;;;;;;;4.90;2.47;;;;;;;;;;2089370;28;20033;-67
2022/05/05 06:37:08;;;;;;;3.40;2.53;;;;;;;;;;2080253;28;20112;-68
2022/05/05 06:38:27;;;;;;;5.88;2.58;;;;;;;;;;2085304;28;20053;-68
2022/05/05 06:39:46;;;;;;;3.92;2.45;;;;;;;;;;2090708;28;20029;-68
2022/05/05 06:41:05;;;;;;;6.60;2.53;;;;;;;;;;2090488;28;20068;-68
2022/05/05 06:42:24;;;;;;;3.47;2.40;;;;;;;;;;2087980;28;20056;-68
2022/05/05 06:43:42;;;;;;;4.75;2.25;;;;;;;;;;2089372;28;20022;-67
2022/05/05 06:45:03;;;;;;;5.05;2.70;;;;;;;;;;2089214;28;20021;-67
2022/05/05 06:46:21;;;;;;;6.20;3.03;;;;;;;;;;2089674;28;20071;-69
2022/05/05 06:47:40;;;;;;;4.07;2.60;;;;;;;;;;2089251;28;20026;-67
2022/05/05 06:48:59;;;;;;;4.57;2.50;;;;;;;;;;2090057;28;20025;-67
2022/05/05 06:50:21;;;;;;;3.03;2.72;;;;;;;;;;2090640;28;20029;-68
2022/05/05 06:51:40;;;;;;;2.58;2.38;;;;;;;;;;2081241;28;20507;-67
2022/05/05 06:53:00;;;;;;;5.20;2.50;;;;;;;;;;2085635;28;20029;-67
2022/05/05 06:54:19;;;;;;;6.43;2.40;;;;;;;;;;2088991;28;20486;-68
2022/05/05 06:55:38;;;;;;;3.05;2.50;;;;;;;;;;2078950;28;20061;-69
2022/05/05 06:56:57;;;;;;;5.03;2.58;;;;;;;;;;2086210;28;20032;-68
2022/05/05 06:58:16;;;;;;;4.18;2.38;;;;;;;;;;2089365;28;20383;-68
2022/05/05 06:59:35;;;;;;;4.03;2.67;;;;;;;;;;2087773;28;20033;-68
2022/05/05 07:02:31;;;;;;;4.97;2.42;;;;;;;;;;2087236;28;20029;-68
2022/05/05 07:05:23;;;;;;;6.55;2.55;;;;;;;;;;2081478;28;20033;-67
2022/05/05 07:05:29;;;;;;;5.30;2.80;;;;;;;;;;2089693;28;20029;-67
2022/05/05 07:06:49;;;;;;;3.53;2.67;;;;;;;;;;2081533;28;20052;-68
2022/05/05 07:08:07;;;;;;;6.03;2.75;;;;;;;;;;2082959;28;20037;-69
2022/05/05 07:11:04;;;;;;;9.05;3.00;;;;;;;;;;2089508;28;20095;-68
2022/05/05 07:12:23;;;;;;;2.72;2.05;;;;;;;;;;2081179;28;20446;-68
2022/05/05 07:13:41;;;;;;;3.72;2.17;;;;;;;;;;2086282;28;20037;-68
2022/05/05 07:15:00;;;;;;;4.93;2.65;;;;;;;;;;2089858;28;20025;-68
2022/05/05 07:16:19;;;;;;;4.30;2.85;;;;;;;;;;2088042;28;20025;-68
2022/05/05 07:17:38;;;;;;;7.07;2.38;;;;;;;;;;2089937;28;20029;-68
2022/05/05 07:18:57;;;;;;;5.88;2.38;;;;;;;;;;2090372;28;20436;-68
2022/05/05 07:20:16;;;;;;;3.33;2.50;;;;;;;;;;2090315;28;20407;-68
2022/05/05 07:21:37;;;;;;;5.25;2.50;;;;;;;;;;2090248;28;20495;-68
2022/05/05 07:22:59;;;;;;;2.97;2.30;;;;;;;;;;2089051;28;20376;-68
2022/05/05 07:24:18;;;;;;;8.05;2.70;;;;;;;;;;2088228;28;20037;-69
2022/05/05 07:25:37;;;;;;;4.55;2.72;;;;;;;;;;2090192;28;20555;-67
2022/05/05 07:26:57;;;;;;;8.43;2.63;;;;;;;;;;2089692;28;20108;-68
2022/05/05 07:28:16;;;;;;;7.03;2.22;;;;;;;;;;2090149;28;20029;-68
2022/05/05 07:29:35;;;;;;;8.35;2.58;;;;;;;;;;2088822;28;20032;-69
2022/05/05 07:30:54;;;;;;;4.88;2.72;;;;;;;;;;2089243;28;20123;-68
2022/05/05 07:32:13;;;;;;;4.50;2.90;;;;;;;;;;2089861;28;20040;-69
2022/05/05 07:33:35;;;;;;;5.82;2.67;;;;;;;;;;2087883;28;20021;-68
2022/05/05 07:34:54;;;;;;;8.93;2.47;;;;;;;;;;2088349;28;20041;-67
2022/05/05 07:36:13;;;;;;;4.35;2.65;;;;;;;;;;2081531;28;20025;-67
2022/05/05 07:37:32;;;;;;;8.90;2.80;;;;;;;;;;2086498;28;20021;-67
2022/05/05 07:38:51;;;;;;;6.22;2.55;;;;;;;;;;2080709;28;20124;-66
2022/05/05 07:40:10;;;;;;;4.63;3.13;;;;;;;;;;2085474;28;20025;-67
2022/05/05 07:41:29;;;;;;;6.10;2.53;;;;;;;;;;2089543;28;20024;-68
2022/05/05 07:42:47;;;;;;;4.15;2.45;;;;;;;;;;2089627;28;20119;-69
2022/05/05 07:44:06;;;;;;;2.97;2.75;;;;;;;;;;2089955;28;20534;-68
2022/05/05 07:45:25;;;;;;;3.55;2.50;;;;;;;;;;2089985;28;20037;-68
2022/05/05 07:46:44;;;;;;;3.55;2.20;;;;;;;;;;2090321;28;20033;-67
2022/05/05 07:48:03;;;;;;;7.45;3.17;;;;;;;;;;2089567;28;20406;-66
2022/05/05 07:49:22;;;;;;;7.65;2.60;;;;;;;;;;2080724;28;20029;-67
2022/05/05 07:50:41;;;;;;;6.60;2.40;;;;;;;;;;2084907;28;20041;-67
2022/05/05 07:52:00;;;;;;;5.35;2.70;;;;;;;;;;2089899;28;20037;-67
2022/05/05 07:53:19;;;;;;;5.82;2.47;;;;;;;;;;2089182;28;20065;-67
2022/05/05 07:54:38;;;;;;;3.97;2.40;;;;;;;;;;2089905;28;20040;-68
2022/05/05 07:55:57;;;;;;;4.88;2.58;;;;;;;;;;2089134;28;20021;-68
2022/05/05 07:57:20;;;;;;;5.82;2.53;;;;;;;;;;2089817;28;20472;-68
2022/05/05 07:58:38;;;;;;;9.35;2.70;;;;;;;;;;2088460;28;20033;-68
2022/05/05 07:59:58;;;;;;;14.40;3.63;;;;;;;;;;2081157;28;20030;-68
2022/05/05 08:01:16;;;;;;;2.80;2.60;;;;;;;;;;2085598;28;20383;-67
2022/05/05 08:02:35;;;;;;;6.78;3.00;;;;;;;;;;2088803;28;20021;-67
2022/05/05 08:03:55;;;;;;;4.40;2.33;;;;;;;;;;2089734;28;20112;-68
2022/05/05 08:05:14;;;;;;;4.15;2.50;;;;;;;;;;2089227;28;20457;-68
2022/05/05 08:06:33;;;;;;;4.80;2.70;;;;;;;;;;2089067;28;20049;-68
2022/05/05 08:07:52;;;;;;;4.18;2.33;;;;;;;;;;2087737;28;20028;-67
2022/05/05 08:09:11;;;;;;;6.78;2.33;;;;;;;;;;2090102;28;20419;-67
2022/05/05 08:10:31;;;;;;;7.07;2.35;;;;;;;;;;2089377;28;20033;-68